Time;durP1;ratioP1;P1;durP2;ratioP2;P2;SDS_P1;SDS_P2;PMS_P1;PMS_P2;Temp;Humidity;BMP_temperature;BMP_pressure;BME280_temperature;BME280_humidity;BME280_pressure;Samples;Min_cycle;Max_cycle;Signal;HPM_P1;HPM_P2
2022/11/21 00:00:30;;;;;;;11.00;9.07;;;-0.30;99.90;;;;;;4968539;28;20326;-73
2022/11/21 00:03:00;;;;;;;11.83;9.43;;;-0.30;99.90;;;;;;4968664;28;20207;-73
2022/11/21 00:05:26;;;;;;;11.67;9.50;;;-0.30;99.90;;;;;;4968589;28;20256;-73
2022/11/21 00:07:54;;;;;;;10.70;8.83;;;-0.30;99.90;;;;;;4968686;28;20329;-72
2022/11/21 00:10:21;;;;;;;13.90;9.60;;;-0.30;99.90;;;;;;4969309;28;20214;-72
2022/11/21 00:12:48;;;;;;;13.50;9.80;;;-0.30;99.90;;;;;;4971940;28;20307;-71
2022/11/21 00:15:15;;;;;;;12.57;9.13;;;-0.30;99.90;;;;;;4971837;28;20290;-70
2022/11/21 00:17:41;;;;;;;10.73;9.17;;;-0.30;99.90;;;;;;4972003;28;20722;-71
2022/11/21 00:20:10;;;;;;;10.73;9.23;;;-0.30;99.90;;;;;;4971696;28;20298;-71
2022/11/21 00:22:37;;;;;;;11.03;9.13;;;-0.30;99.90;;;;;;4969842;28;20375;-70
2022/11/21 00:25:05;;;;;;;12.00;9.47;;;-0.30;99.90;;;;;;4971572;28;20386;-71
2022/11/21 00:27:32;;;;;;;11.47;9.37;;;-0.30;99.90;;;;;;4971771;28;20202;-71
2022/11/21 00:29:59;;;;;;;11.93;9.47;;;-0.20;99.90;;;;;;4971577;28;20207;-72
2022/11/21 00:32:26;;;;;;;10.57;9.47;;;-0.30;99.90;;;;;;4971399;28;20302;-72
2022/11/21 00:34:53;;;;;;;12.70;9.03;;;-0.20;99.90;;;;;;4971588;28;20210;-71
2022/11/21 00:37:21;;;;;;;10.70;9.33;;;-0.20;99.90;;;;;;4971421;28;20297;-71
2022/11/21 00:39:48;;;;;;;11.83;9.53;;;-0.20;99.90;;;;;;4971040;28;20298;-70
2022/11/21 00:42:15;;;;;;;10.43;9.20;;;-0.10;99.90;;;;;;4971270;28;20747;-71
2022/11/21 00:44:42;;;;;;;12.23;9.23;;;-0.10;99.90;;;;;;4971373;28;20309;-70
2022/11/21 00:47:08;;;;;;;10.97;8.80;;;-0.20;99.90;;;;;;4971277;28;20599;-71
2022/11/21 00:49:35;;;;;;;11.73;9.07;;;-0.10;99.90;;;;;;4971765;28;20342;-71
2022/11/21 00:52:02;;;;;;;11.00;9.07;;;-0.10;99.90;;;;;;4971248;28;20245;-71
2022/11/21 00:54:30;;;;;;;12.77;9.97;;;-0.10;99.90;;;;;;4971484;28;20203;-75
2022/11/21 00:56:57;;;;;;;11.57;9.40;;;-0.10;99.90;;;;;;4971601;28;20219;-73
2022/11/21 00:59:24;;;;;;;11.47;9.33;;;-0.10;99.90;;;;;;4971424;28;20302;-76
2022/11/21 01:01:51;;;;;;;11.63;9.50;;;-0.10;99.90;;;;;;4971009;28;20202;-75
2022/11/21 01:04:18;;;;;;;13.07;9.27;;;-0.10;99.90;;;;;;4971464;28;20625;-74
2022/11/21 01:06:45;;;;;;;11.90;9.10;;;-0.10;99.90;;;;;;4970650;28;20345;-70
2022/11/21 01:09:11;;;;;;;11.40;9.63;;;-0.10;99.90;;;;;;4971164;28;20326;-70
2022/11/21 01:11:40;;;;;;;11.83;9.30;;;-0.10;99.90;;;;;;4971220;28;20306;-71
2022/11/21 01:14:07;;;;;;;10.67;9.13;;;-0.10;99.90;;;;;;4970557;28;20648;-71
2022/11/21 01:16:34;;;;;;;13.27;9.97;;;-0.10;99.90;;;;;;4962654;28;20294;-71
2022/11/21 01:19:01;;;;;;;10.43;9.27;;;-0.10;99.90;;;;;;4962453;28;20209;-71
2022/11/21 01:21:31;;;;;;;10.80;8.93;;;-0.10;99.90;;;;;;4970286;28;20694;-71
2022/11/21 01:24:00;;;;;;;10.90;9.17;;;0.00;99.90;;;;;;4970145;28;20290;-70
2022/11/21 01:26:29;;;;;;;11.47;9.50;;;0.00;99.90;;;;;;4971005;28;20246;-70
2022/11/21 01:28:58;;;;;;;10.73;8.90;;;0.00;99.90;;;;;;4970769;28;20317;-71
2022/11/21 01:31:26;;;;;;;13.20;10.13;;;0.00;99.90;;;;;;4970256;28;20276;-70
2022/11/21 01:33:54;;;;;;;12.93;9.53;;;0.00;99.90;;;;;;4970541;28;20281;-70
2022/11/21 01:36:22;;;;;;;10.77;9.43;;;0.00;99.90;;;;;;4970405;28;20219;-70
2022/11/21 01:38:50;;;;;;;12.17;9.77;;;0.00;99.90;;;;;;4970364;28;20303;-70
2022/11/21 01:41:19;;;;;;;12.17;9.43;;;-0.10;99.90;;;;;;4970513;28;20218;-70
2022/11/21 01:43:48;;;;;;;11.13;9.27;;;-0.10;99.90;;;;;;4970208;28;20293;-71
2022/11/21 01:46:18;;;;;;;10.53;9.43;;;0.00;99.90;;;;;;4970033;28;20207;-70
2022/11/21 01:48:52;;;;;;;17.50;10.40;;;-0.10;99.90;;;;;;4970336;28;20333;-71
2022/11/21 01:51:25;;;;;;;13.37;9.80;;;-0.10;99.90;;;;;;4970354;28;20725;-70
2022/11/21 01:53:56;;;;;;;11.63;9.47;;;-0.10;99.90;;;;;;4970351;28;20311;-70
2022/11/21 01:56:24;;;;;;;11.77;9.53;;;-0.10;99.90;;;;;;4969915;28;20226;-70
2022/11/21 01:58:53;;;;;;;12.73;9.73;;;-0.10;99.90;;;;;;4969785;28;20245;-70
2022/11/21 02:01:21;;;;;;;12.67;10.53;;;-0.10;99.90;;;;;;4969637;28;20199;-72
2022/11/21 02:03:49;;;;;;;11.83;9.87;;;-0.10;99.90;;;;;;4970004;28;20301;-72
2022/11/21 02:06:16;;;;;;;10.40;9.33;;;0.00;99.90;;;;;;4970042;28;20285;-73
2022/11/21 02:08:44;;;;;;;11.47;9.90;;;-0.10;99.90;;;;;;4969737;28;20691;-72
2022/11/21 02:11:21;;;;;;;12.20;9.33;;;0.00;99.90;;;;;;4970056;28;20578;-72
2022/11/21 02:13:48;;;;;;;12.97;9.43;;;0.00;99.90;;;;;;4972428;28;20212;-74
2022/11/21 02:16:14;;;;;;;10.40;9.10;;;0.00;99.90;;;;;;4989314;28;20297;-72
2022/11/21 02:18:43;;;;;;;11.80;9.90;;;0.00;99.90;;;;;;4989148;28;20300;-71
2022/11/21 02:21:19;;;;;;;12.73;9.30;;;0.00;99.90;;;;;;4969649;28;20217;-72
2022/11/21 02:23:52;;;;;;;13.07;10.03;;;-0.10;99.90;;;;;;4969574;28;20291;-71
2022/11/21 02:26:20;;;;;;;12.77;10.03;;;0.00;99.90;;;;;;4969346;28;20202;-72
2022/11/21 02:28:47;;;;;;;14.00;10.20;;;0.00;99.90;;;;;;4969544;28;20226;-72
2022/11/21 02:31:14;;;;;;;11.97;9.53;;;0.00;99.90;;;;;;4969528;28;20298;-72
2022/11/21 02:33:41;;;;;;;12.07;9.30;;;-0.10;99.90;;;;;;4969534;28;20265;-72
2022/11/21 02:36:35;;;;;;;11.53;9.27;;;0.00;99.90;;;;;;4968945;28;20206;-72
2022/11/21 02:39:02;;;;;;;11.90;9.63;;;-0.10;99.90;;;;;;4965735;28;20211;-72
2022/11/21 02:41:33;;;;;;;10.43;9.27;;;0.00;99.90;;;;;;4969615;28;20636;-72
2022/11/21 02:44:05;;;;;;;10.70;8.97;;;0.00;99.90;;;;;;4969406;28;20287;-73
2022/11/21 02:46:34;;;;;;;11.90;9.50;;;0.00;99.90;;;;;;4968928;28;20241;-73
2022/11/21 02:49:07;;;;;;;11.83;9.40;;;0.00;99.90;;;;;;4968727;28;20238;-73
2022/11/21 02:51:33;;;;;;;11.90;9.57;;;0.00;99.90;;;;;;4969426;28;20195;-73
2022/11/21 02:54:00;;;;;;;11.67;9.67;;;-0.10;99.90;;;;;;4968464;28;20682;-71
2022/11/21 02:56:27;;;;;;;11.47;9.67;;;0.00;99.90;;;;;;4968982;28;20321;-72
2022/11/21 02:58:55;;;;;;;11.73;9.60;;;-0.10;99.90;;;;;;4968846;28;20213;-72
2022/11/21 03:01:22;;;;;;;13.10;10.13;;;-0.10;99.90;;;;;;4968982;28;20252;-74
2022/11/21 03:03:49;;;;;;;11.83;9.77;;;-0.10;99.90;;;;;;4968931;28;20265;-73
2022/11/21 03:06:16;;;;;;;12.23;10.23;;;-0.10;99.90;;;;;;4968993;28;20792;-73
2022/11/21 03:08:43;;;;;;;12.30;9.60;;;-0.10;99.90;;;;;;4968837;28;20262;-73
2022/11/21 03:11:11;;;;;;;13.07;10.13;;;-0.10;99.90;;;;;;4969037;28;20203;-73
2022/11/21 03:13:37;;;;;;;12.70;10.37;;;0.00;99.90;;;;;;4969085;28;20217;-71
2022/11/21 03:16:06;;;;;;;13.73;10.40;;;-0.10;99.90;;;;;;4968392;28;20674;-74
2022/11/21 03:18:33;;;;;;;12.80;10.20;;;-0.10;99.90;;;;;;4968746;28;20298;-73
2022/11/21 03:20:59;;;;;;;15.33;10.03;;;-0.10;99.90;;;;;;4968801;28;20207;-73
2022/11/21 03:23:26;;;;;;;13.07;10.50;;;-0.10;99.90;;;;;;4966616;28;20221;-73
2022/11/21 03:25:53;;;;;;;13.20;10.43;;;-0.10;99.90;;;;;;4966568;28;20210;-73
2022/11/21 03:28:20;;;;;;;12.90;9.60;;;-0.10;99.90;;;;;;4966645;28;20214;-73
2022/11/21 03:30:47;;;;;;;13.07;10.23;;;0.00;99.90;;;;;;4966208;28;20289;-73
2022/11/21 03:33:15;;;;;;;11.77;9.17;;;-0.10;99.90;;;;;;4966725;28;21021;-74
2022/11/21 03:35:42;;;;;;;13.23;10.73;;;0.00;99.90;;;;;;4966771;28;20234;-73
2022/11/21 03:38:09;;;;;;;10.60;9.50;;;0.00;99.90;;;;;;4967094;28;20306;-74
2022/11/21 03:40:36;;;;;;;13.57;10.73;;;0.00;99.90;;;;;;4966862;28;20214;-75
2022/11/21 03:43:05;;;;;;;14.60;10.70;;;0.00;99.90;;;;;;4966833;28;20503;-73
2022/11/21 03:45:32;;;;;;;13.57;10.23;;;-0.10;99.90;;;;;;4967559;28;20222;-74
2022/11/21 03:47:58;;;;;;;14.03;10.87;;;0.00;99.90;;;;;;4970211;28;20217;-74
2022/11/21 03:50:27;;;;;;;13.47;11.00;;;-0.10;99.90;;;;;;4972064;28;20664;-74
2022/11/21 03:52:54;;;;;;;13.07;11.00;;;-0.10;99.90;;;;;;4972651;28;20298;-76
2022/11/21 03:55:22;;;;;;;14.13;11.23;;;-0.10;99.90;;;;;;4972013;28;20943;-77
2022/11/21 03:57:49;;;;;;;12.37;10.13;;;-0.10;99.90;;;;;;4972615;28;20206;-76
2022/11/21 04:00:17;;;;;;;12.27;9.83;;;-0.10;99.90;;;;;;4971862;28;20228;-74
2022/11/21 04:02:44;;;;;;;12.00;10.23;;;0.00;99.90;;;;;;4972261;28;20306;-74
2022/11/21 04:05:10;;;;;;;13.43;10.13;;;-0.10;99.90;;;;;;4972409;28;20293;-74
2022/11/21 04:07:39;;;;;;;14.47;10.27;;;-0.10;99.90;;;;;;4972511;28;20313;-76
2022/11/21 04:10:06;;;;;;;12.67;9.47;;;0.00;99.90;;;;;;4972173;28;20325;-76
2022/11/21 04:12:33;;;;;;;14.07;10.10;;;-0.10;99.90;;;;;;4972287;28;20214;-76
2022/11/21 04:15:00;;;;;;;12.60;9.83;;;0.00;99.90;;;;;;4972005;28;20211;-73
2022/11/21 04:17:27;;;;;;;13.17;10.40;;;-0.10;99.90;;;;;;4972121;28;20211;-73
2022/11/21 04:19:54;;;;;;;12.90;10.17;;;-0.10;99.90;;;;;;4972328;28;20221;-75
2022/11/21 04:22:21;;;;;;;13.67;10.63;;;-0.10;99.90;;;;;;4972222;28;20203;-74
2022/11/21 04:24:49;;;;;;;11.80;10.10;;;-0.10;99.90;;;;;;4971694;28;20215;-74
2022/11/21 04:27:16;;;;;;;11.67;9.67;;;-0.10;99.90;;;;;;4972258;28;20305;-74
2022/11/21 04:29:43;;;;;;;13.40;10.73;;;0.00;99.90;;;;;;4972081;28;20262;-76
2022/11/21 04:32:10;;;;;;;13.57;10.30;;;-0.10;99.90;;;;;;4971976;28;20307;-74
2022/11/21 04:34:38;;;;;;;12.90;10.33;;;-0.10;99.90;;;;;;4971896;28;20301;-77
2022/11/21 04:37:05;;;;;;;12.97;9.77;;;-0.10;99.90;;;;;;4971668;28;20211;-74
2022/11/21 04:39:32;;;;;;;14.17;11.60;;;0.00;99.90;;;;;;4952838;28;20246;-77
2022/11/21 04:42:00;;;;;;;14.37;12.07;;;-0.10;99.90;;;;;;4952275;28;20757;-75
2022/11/21 04:44:27;;;;;;;13.30;10.37;;;-0.10;99.90;;;;;;4952443;28;20639;-73
2022/11/21 04:46:54;;;;;;;13.47;10.93;;;-0.10;99.90;;;;;;4952456;28;20220;-76
2022/11/21 04:49:21;;;;;;;15.47;11.20;;;-0.10;99.90;;;;;;4953027;28;20611;-77
2022/11/21 04:51:47;;;;;;;13.90;10.50;;;-0.10;99.90;;;;;;4971292;28;20723;-76
2022/11/21 04:54:14;;;;;;;13.27;10.00;;;-0.10;99.90;;;;;;4971675;28;20310;-75
2022/11/21 04:56:41;;;;;;;13.23;10.37;;;-0.10;99.90;;;;;;4971543;28;20214;-73
2022/11/21 04:59:10;;;;;;;13.00;10.47;;;-0.20;99.90;;;;;;4974582;28;20229;-76
2022/11/21 05:01:38;;;;;;;13.00;10.40;;;-0.20;99.90;;;;;;4970953;28;20211;-77
2022/11/21 05:04:05;;;;;;;13.33;10.90;;;-0.10;99.90;;;;;;4971467;28;20305;-77
2022/11/21 05:06:32;;;;;;;12.33;10.17;;;-0.10;99.90;;;;;;4971038;28;20357;-77
2022/11/21 05:08:58;;;;;;;16.37;10.53;;;-0.20;99.90;;;;;;4970998;28;20297;-74
2022/11/21 05:14:11;;;;;;;14.03;10.90;;;-0.10;99.90;;;;;;4970915;28;20221;-75
2022/11/21 05:16:38;;;;;;;15.30;11.20;;;-0.20;99.90;;;;;;4970587;28;20603;-76
2022/11/21 05:19:06;;;;;;;13.83;10.97;;;-0.20;99.90;;;;;;4970748;28;20263;-76
2022/11/21 05:21:33;;;;;;;15.90;11.77;;;-0.10;99.90;;;;;;4970583;28;20278;-77
2022/11/21 05:24:00;;;;;;;19.17;15.20;;;-0.10;99.90;;;;;;4970469;28;20207;-75
2022/11/21 05:26:27;;;;;;;18.97;12.73;;;-0.10;99.90;;;;;;4970829;28;20221;-76
2022/11/21 05:28:54;;;;;;;14.03;11.20;;;-0.10;99.90;;;;;;4970775;28;20301;-73
2022/11/21 05:31:22;;;;;;;12.83;10.23;;;-0.10;99.90;;;;;;4970836;28;20213;-76
2022/11/21 05:33:49;;;;;;;14.37;10.40;;;-0.10;99.90;;;;;;4970581;28;20282;-76
2022/11/21 05:36:15;;;;;;;14.50;10.77;;;-0.10;99.90;;;;;;4970956;28;20297;-75
2022/11/21 05:38:43;;;;;;;13.83;11.03;;;-0.10;99.90;;;;;;4970683;28;20219;-74
2022/11/21 05:41:10;;;;;;;13.37;10.47;;;-0.10;99.90;;;;;;4970837;28;20301;-74
2022/11/21 05:43:44;;;;;;;14.53;11.00;;;-0.10;99.90;;;;;;4970911;28;20294;-77
2022/11/21 05:46:12;;;;;;;15.03;10.77;;;-0.10;99.90;;;;;;4969841;28;20210;-76
2022/11/21 05:48:40;;;;;;;14.20;10.90;;;-0.10;99.90;;;;;;4967557;28;20207;-75
2022/11/21 05:51:07;;;;;;;14.97;11.77;;;-0.10;99.90;;;;;;4970405;28;20333;-75
2022/11/21 05:53:34;;;;;;;15.03;11.33;;;-0.10;99.90;;;;;;4970242;28;20305;-73
2022/11/21 05:56:03;;;;;;;16.47;11.50;;;-0.10;99.90;;;;;;4970016;28;20242;-74
2022/11/21 05:58:30;;;;;;;16.83;10.90;;;-0.10;99.90;;;;;;4970574;28;20302;-76
2022/11/21 06:00:58;;;;;;;14.37;10.70;;;-0.10;99.90;;;;;;4986401;28;20202;-77
2022/11/21 06:03:27;;;;;;;15.73;10.97;;;-0.10;99.90;;;;;;4989755;28;20284;-74
2022/11/21 06:05:59;;;;;;;15.27;11.80;;;-0.10;99.90;;;;;;4989475;28;20246;-76
2022/11/21 06:08:26;;;;;;;14.77;11.40;;;-0.10;99.90;;;;;;4978486;28;20210;-74
2022/11/21 06:10:53;;;;;;;14.83;11.60;;;-0.10;99.90;;;;;;4969842;28;20361;-73
2022/11/21 06:13:23;;;;;;;14.17;11.33;;;-0.10;99.90;;;;;;4970177;28;20736;-77
2022/11/21 06:15:51;;;;;;;14.47;11.33;;;-0.10;99.90;;;;;;4969190;28;20221;-74
2022/11/21 06:18:18;;;;;;;14.30;11.00;;;-0.10;99.90;;;;;;4969826;28;20238;-76
2022/11/21 06:20:46;;;;;;;13.10;10.90;;;-0.10;99.90;;;;;;4969665;28;21131;-75
2022/11/21 06:23:14;;;;;;;12.87;10.20;;;-0.10;99.90;;;;;;4969594;28;20630;-74
2022/11/21 06:25:42;;;;;;;12.23;10.17;;;0.00;99.90;;;;;;4969905;28;20302;-73
2022/11/21 06:28:08;;;;;;;12.33;10.10;;;0.00;99.90;;;;;;4969648;28;20298;-73
2022/11/21 06:30:35;;;;;;;10.87;9.40;;;0.00;99.90;;;;;;4969458;28;20321;-74
2022/11/21 06:33:05;;;;;;;11.63;9.57;;;0.00;99.90;;;;;;4969508;28;20206;-75
2022/11/21 06:35:33;;;;;;;13.33;10.53;;;-0.10;99.90;;;;;;4969592;28;20213;-74
2022/11/21 06:38:00;;;;;;;11.13;9.57;;;-0.20;99.90;;;;;;4969722;28;20222;-73
2022/11/21 06:40:28;;;;;;;13.80;10.23;;;-0.20;99.90;;;;;;4969610;28;20245;-77
2022/11/21 06:42:56;;;;;;;11.90;9.20;;;-0.20;99.90;;;;;;4969186;28;20266;-77
2022/11/21 06:45:23;;;;;;;11.77;9.77;;;-0.20;99.90;;;;;;4969474;28;20373;-74
2022/11/21 06:47:50;;;;;;;12.50;9.50;;;-0.20;99.90;;;;;;4969602;28;20243;-74
2022/11/21 06:50:16;;;;;;;10.80;9.03;;;-0.20;99.90;;;;;;4969120;28;20234;-74
2022/11/21 06:52:43;;;;;;;11.77;9.43;;;-0.10;99.90;;;;;;4969266;28;20264;-73
2022/11/21 06:55:11;;;;;;;12.03;9.33;;;-0.10;99.90;;;;;;4969329;28;20310;-76
2022/11/21 06:57:39;;;;;;;12.00;9.80;;;-0.10;99.90;;;;;;4969063;28;20302;-77
2022/11/21 07:00:07;;;;;;;10.30;8.53;;;-0.10;99.90;;;;;;4969204;28;20243;-75
2022/11/21 07:02:34;;;;;;;13.40;9.90;;;-0.20;99.90;;;;;;4968971;28;20651;-73
2022/11/21 07:05:00;;;;;;;12.50;9.43;;;-0.20;99.90;;;;;;4968931;28;20211;-73
2022/11/21 07:07:27;;;;;;;11.07;9.60;;;-0.20;99.90;;;;;;4968883;28;20265;-76
2022/11/21 07:09:54;;;;;;;12.37;9.47;;;-0.30;99.90;;;;;;4968854;28;20321;-73
2022/11/21 07:15:07;;;;;;;18.73;11.60;;;-0.30;99.90;;;;;;4968404;28;20666;-76
2022/11/21 07:17:34;;;;;;;16.37;11.80;;;-0.40;99.90;;;;;;4968420;28;20257;-74
2022/11/21 07:20:01;;;;;;;17.50;11.73;;;-0.40;99.90;;;;;;4968008;28;20305;-74
2022/11/21 07:22:28;;;;;;;18.93;12.43;;;-0.40;99.90;;;;;;4968732;28;20202;-74
2022/11/21 07:24:55;;;;;;;20.30;12.40;;;-0.40;99.90;;;;;;4968738;28;20238;-76
2022/11/21 07:27:22;;;;;;;17.43;11.83;;;-0.40;99.90;;;;;;4968880;28;20289;-76
2022/11/21 07:29:48;;;;;;;19.27;12.40;;;-0.40;99.90;;;;;;4968681;28;20620;-77
2022/11/21 07:32:17;;;;;;;19.97;11.70;;;-0.50;99.90;;;;;;4968813;28;20650;-74
2022/11/21 07:34:43;;;;;;;18.13;12.50;;;-0.50;99.90;;;;;;4968534;28;20985;-74
2022/11/21 07:37:10;;;;;;;20.27;13.10;;;-0.50;99.90;;;;;;4968617;28;20211;-76
2022/11/21 07:39:37;;;;;;;19.07;13.13;;;-0.50;99.90;;;;;;4968796;28;20206;-76
2022/11/21 07:42:04;;;;;;;16.37;12.50;;;-0.50;99.90;;;;;;4968593;28;20217;-76
2022/11/21 07:44:31;;;;;;;19.10;13.37;;;-0.60;99.90;;;;;;4968400;28;20665;-77
2022/11/21 07:46:58;;;;;;;20.30;13.27;;;-0.50;99.90;;;;;;4968475;28;20445;-73
2022/11/21 07:49:26;;;;;;;21.37;13.50;;;-0.50;99.90;;;;;;4968597;28;20207;-73
2022/11/21 07:51:53;;;;;;;19.40;12.67;;;-0.50;99.90;;;;;;4967923;28;20330;-74
2022/11/21 07:54:19;;;;;;;23.00;13.97;;;-0.50;99.90;;;;;;4968212;28;20293;-76
2022/11/21 07:56:46;;;;;;;20.43;12.80;;;-0.50;99.90;;;;;;4968405;28;20217;-77
2022/11/21 07:59:13;;;;;;;23.97;14.10;;;-0.40;99.90;;;;;;4970904;28;20674;-74
2022/11/21 08:01:40;;;;;;;23.20;14.20;;;-0.40;99.90;;;;;;4987552;28;20661;-73
2022/11/21 08:04:07;;;;;;;19.90;12.43;;;-0.40;99.90;;;;;;4987968;28;20285;-75
2022/11/21 08:06:35;;;;;;;25.13;13.60;;;-0.40;99.90;;;;;;4988000;28;20794;-76
2022/11/21 08:09:02;;;;;;;21.17;13.13;;;-0.40;99.90;;;;;;4972283;28;20213;-73
2022/11/21 08:11:29;;;;;;;24.50;13.10;;;-0.40;99.90;;;;;;4968732;28;20262;-77
2022/11/21 08:13:58;;;;;;;21.63;13.33;;;-0.50;99.90;;;;;;4968137;28;20217;-74
2022/11/21 08:16:26;;;;;;;30.27;14.37;;;-0.50;99.90;;;;;;4968255;28;20310;-73
2022/11/21 08:18:53;;;;;;;25.00;13.07;;;-0.50;99.90;;;;;;4968430;28;20211;-76
2022/11/21 08:21:20;;;;;;;20.23;12.93;;;-0.50;99.90;;;;;;4968659;28;20646;-77
2022/11/21 08:23:49;;;;;;;22.67;12.50;;;-0.60;99.90;;;;;;4967801;28;20294;-77
2022/11/21 08:26:16;;;;;;;20.97;13.27;;;-0.60;99.90;;;;;;4968240;28;20245;-73
2022/11/21 08:28:43;;;;;;;18.73;11.83;;;-0.70;99.90;;;;;;4968153;28;20215;-74
2022/11/21 08:31:10;;;;;;;20.50;12.37;;;-0.70;99.90;;;;;;4968248;28;20329;-76
2022/11/21 08:33:37;;;;;;;18.70;12.33;;;-0.90;99.90;;;;;;4971801;28;20289;-77
2022/11/21 08:36:04;;;;;;;18.47;11.43;;;-0.90;99.90;;;;;;4971816;28;20269;-75
2022/11/21 08:38:31;;;;;;;21.33;11.60;;;-1.00;99.90;;;;;;4971682;28;20224;-77
2022/11/21 08:43:44;;;;;;;17.13;10.03;;;-1.30;99.90;;;;;;4971437;28;20221;-74
2022/11/21 08:46:11;;;;;;;17.87;9.90;;;-1.30;99.90;;;;;;4971394;28;20695;-74
2022/11/21 08:48:38;;;;;;;13.70;9.93;;;-1.40;99.90;;;;;;4971303;28;20329;-77
2022/11/21 08:51:05;;;;;;;14.80;9.63;;;-1.30;99.90;;;;;;4970967;28;20352;-77
2022/11/21 08:53:32;;;;;;;18.03;10.53;;;-1.30;99.90;;;;;;4971250;28;20290;-77
2022/11/21 08:56:00;;;;;;;17.97;10.50;;;-1.30;99.90;;;;;;4971347;28;20269;-74
2022/11/21 08:58:27;;;;;;;15.97;10.40;;;-1.30;99.90;;;;;;4971241;28;20217;-74
2022/11/21 09:00:54;;;;;;;17.97;10.30;;;-1.20;99.90;;;;;;4971126;28;20641;-77
2022/11/21 09:03:21;;;;;;;15.37;10.70;;;-1.10;99.90;;;;;;4970985;28;20680;-76
2022/11/21 09:05:48;;;;;;;11.20;8.20;;;-1.10;99.90;;;;;;4970927;28;20241;-75
2022/11/21 09:08:15;;;;;;;10.63;7.43;;;-1.10;99.90;;;;;;4971309;28;20302;-74
2022/11/21 09:10:41;;;;;;;11.53;7.30;;;-1.30;99.90;;;;;;4971221;28;20237;-73
2022/11/21 09:13:10;;;;;;;9.57;7.43;;;-1.50;99.90;;;;;;4971388;28;20616;-73
2022/11/21 09:18:21;;;;;;;13.63;7.90;;;-1.60;99.90;;;;;;4970691;28;20320;-74
2022/11/21 09:20:48;;;;;;;12.57;8.43;;;-1.50;99.90;;;;;;4971067;28;20304;-74
2022/11/21 09:23:16;;;;;;;10.90;8.00;;;-1.40;99.90;;;;;;4970777;28;20209;-74
2022/11/21 09:25:44;;;;;;;12.00;6.87;;;-1.40;99.90;;;;;;4971106;28;20312;-74
2022/11/21 09:28:13;;;;;;;10.87;7.17;;;-1.30;99.90;;;;;;4971158;28;20336;-73
2022/11/21 09:30:41;;;;;;;10.00;7.27;;;-1.40;99.90;;;;;;4970469;28;20276;-77
2022/11/21 09:33:11;;;;;;;9.73;6.93;;;-1.30;99.90;;;;;;4970930;28;20210;-76
2022/11/21 09:35:38;;;;;;;10.60;6.53;;;-1.30;99.90;;;;;;4970810;28;20332;-77
2022/11/21 09:38:05;;;;;;;11.27;7.33;;;-1.20;99.90;;;;;;4970859;28;20221;-77
2022/11/21 09:40:34;;;;;;;9.90;6.70;;;-1.30;99.90;;;;;;4970765;28;20221;-78
2022/11/21 09:43:21;;;;;;;9.33;6.80;;;-1.20;99.90;;;;;;4969700;28;20218;-74
2022/11/21 09:45:49;;;;;;;14.73;7.87;;;-1.10;99.90;;;;;;4970348;28;20199;-78
2022/11/21 09:48:21;;;;;;;12.83;7.53;;;-1.00;99.90;;;;;;4970303;28;20242;-77
2022/11/21 09:50:53;;;;;;;10.67;7.70;;;-0.90;99.90;;;;;;4970561;28;20333;-78
2022/11/21 09:53:24;;;;;;;10.07;7.23;;;-0.90;99.90;;;;;;4970803;28;20742;-73
2022/11/21 09:55:56;;;;;;;10.80;7.33;;;-0.80;99.90;;;;;;4969967;28;20261;-75
2022/11/21 09:58:30;;;;;;;7.87;6.10;;;-0.80;99.90;;;;;;4970296;28;20198;-74
2022/11/21 10:00:57;;;;;;;11.13;7.13;;;-0.90;99.90;;;;;;4976406;28;20580;-73
2022/11/21 10:03:27;;;;;;;10.80;7.27;;;-0.80;99.90;;;;;;4970256;28;20691;-78
2022/11/21 10:05:58;;;;;;;8.70;6.80;;;-0.80;99.90;;;;;;4970148;28;20751;-77
2022/11/21 10:08:43;;;;;;;9.47;6.63;;;-0.80;99.90;;;;;;4969922;28;20218;-74
2022/11/21 10:11:18;;;;;;;9.47;6.73;;;-0.80;99.90;;;;;;4970383;28;20333;-74
2022/11/21 10:14:02;;;;;;;7.57;5.90;;;-0.80;99.90;;;;;;4970242;28;20289;-75
2022/11/21 10:16:40;;;;;;;8.00;6.30;;;-0.90;99.90;;;;;;4969496;28;20895;-73
2022/11/21 10:19:25;;;;;;;8.40;6.07;;;-0.90;99.90;;;;;;4969844;28;20201;-73
2022/11/21 10:22:08;;;;;;;8.33;5.77;;;-0.90;99.90;;;;;;4969745;28;20206;-73
2022/11/21 10:24:43;;;;;;;8.30;6.23;;;-0.90;99.90;;;;;;4969798;28;20231;-76
2022/11/21 10:27:16;;;;;;;10.90;6.40;;;-0.90;99.90;;;;;;4969995;28;20297;-75
2022/11/21 10:29:52;;;;;;;8.00;6.30;;;-1.00;99.90;;;;;;4969683;28;20406;-76
2022/11/21 10:32:23;;;;;;;8.40;6.50;;;-1.10;99.90;;;;;;4969732;28;20304;-74
2022/11/21 10:34:53;;;;;;;9.53;7.07;;;-1.10;99.90;;;;;;4969552;28;20204;-73
2022/11/21 10:37:32;;;;;;;12.87;6.47;;;-1.20;99.90;;;;;;4969725;28;20252;-73
2022/11/21 10:40:10;;;;;;;9.80;6.70;;;-1.10;99.90;;;;;;4969508;28;20676;-73
2022/11/21 10:42:46;;;;;;;7.90;6.33;;;-1.10;99.90;;;;;;4969380;28;20203;-75
2022/11/21 10:45:17;;;;;;;10.43;6.70;;;-1.00;99.90;;;;;;4969426;28;20560;-73
2022/11/21 10:47:45;;;;;;;6.57;5.33;;;-0.90;99.90;;;;;;4969281;28;20238;-74
2022/11/21 10:50:39;;;;;;;6.80;5.80;;;-1.00;99.90;;;;;;4969425;28;20276;-74
2022/11/21 10:56:02;;;;;;;7.43;6.30;;;-0.90;99.90;;;;;;4969061;28;20241;-75
2022/11/21 10:58:41;;;;;;;8.20;5.73;;;-0.80;99.90;;;;;;4963555;28;20237;-76
2022/11/21 11:01:21;;;;;;;7.73;6.53;;;-0.80;99.90;;;;;;4986844;28;20202;-74
2022/11/21 11:04:04;;;;;;;7.17;6.27;;;-0.80;99.90;;;;;;4988610;28;20194;-73
2022/11/21 11:06:31;;;;;;;7.57;5.83;;;-0.80;99.90;;;;;;4988457;28;20325;-76
2022/11/21 11:08:58;;;;;;;8.13;6.43;;;-0.80;99.90;;;;;;4973350;28;20245;-77
2022/11/21 11:11:25;;;;;;;7.20;6.10;;;-0.80;99.90;;;;;;4969121;28;20326;-74
2022/11/21 11:13:58;;;;;;;8.50;6.87;;;-0.90;99.90;;;;;;4968778;28;20210;-77
2022/11/21 11:16:28;;;;;;;6.50;5.87;;;-0.90;99.90;;;;;;4968555;28;20236;-74
2022/11/21 11:18:59;;;;;;;6.80;6.00;;;-0.90;99.90;;;;;;4968667;28;20256;-74
2022/11/21 11:21:28;;;;;;;7.03;6.03;;;-0.90;99.90;;;;;;4968915;28;20270;-76
2022/11/21 11:24:06;;;;;;;7.90;6.47;;;-0.80;99.90;;;;;;4968665;28;20209;-77
2022/11/21 11:26:33;;;;;;;9.53;7.17;;;-0.80;99.90;;;;;;4969053;28;20277;-74
2022/11/21 11:29:09;;;;;;;7.63;6.17;;;-0.80;99.90;;;;;;4968742;28;20249;-74
2022/11/21 11:31:49;;;;;;;7.37;6.03;;;-0.80;99.90;;;;;;4968335;28;20222;-74
2022/11/21 11:34:17;;;;;;;7.17;6.27;;;-0.90;99.90;;;;;;4968840;28;20305;-74
2022/11/21 11:37:03;;;;;;;9.60;6.30;;;-0.80;99.90;;;;;;4968741;28;20245;-74
2022/11/21 11:39:40;;;;;;;8.70;6.80;;;-0.80;99.90;;;;;;4968316;28;20645;-77
2022/11/21 11:48:22;;;;;;;8.60;7.13;;;-0.90;99.90;;;;;;4968535;28;20209;-77
2022/11/21 11:50:52;;;;;;;9.47;7.27;;;-0.80;99.90;;;;;;4968528;28;20224;-76
2022/11/21 11:53:21;;;;;;;12.30;8.17;;;-0.80;99.90;;;;;;4968646;28;20652;-75
2022/11/21 11:55:53;;;;;;;9.83;7.57;;;-0.80;99.90;;;;;;4968353;28;20316;-77
2022/11/21 11:58:27;;;;;;;8.90;6.63;;;-0.80;99.90;;;;;;4968396;28;20205;-76
2022/11/21 12:01:02;;;;;;;8.30;6.67;;;-0.80;99.90;;;;;;4968377;28;20198;-74
2022/11/21 12:03:40;;;;;;;8.77;6.90;;;-0.80;99.90;;;;;;4968508;28;20285;-77
2022/11/21 12:06:13;;;;;;;7.47;6.73;;;-0.70;99.90;;;;;;4968259;28;20338;-75
2022/11/21 12:08:47;;;;;;;6.83;6.03;;;-0.90;99.90;;;;;;4972380;28;20251;-77
2022/11/21 12:15:47;;;;;;;7.57;6.40;;;-0.90;99.90;;;;;;4971742;28;20700;-74
2022/11/21 12:17:07;;;;;;;8.47;7.03;;;-1.00;99.90;;;;;;4971687;28;20206;-75
2022/11/21 12:19:37;;;;;;;7.03;6.33;;;-1.00;99.90;;;;;;4971744;28;20217;-74
2022/11/21 12:22:06;;;;;;;8.20;6.90;;;-1.00;99.90;;;;;;4971773;28;20308;-75
2022/11/21 12:24:34;;;;;;;8.37;6.33;;;-1.00;99.90;;;;;;4972154;28;20246;-73
2022/11/21 12:27:14;;;;;;;9.10;7.30;;;-0.90;99.90;;;;;;4972147;28;20266;-77
2022/11/21 12:29:57;;;;;;;8.23;7.07;;;-0.90;99.90;;;;;;4971858;28;20764;-77
2022/11/21 12:32:48;;;;;;;8.47;7.17;;;-0.80;99.90;;;;;;4971712;28;20318;-74
2022/11/21 12:35:36;;;;;;;8.60;6.93;;;-0.70;99.90;;;;;;4969101;28;20270;-75
2022/11/21 12:38:14;;;;;;;8.47;6.70;;;-0.70;99.90;;;;;;4971610;28;20619;-75
2022/11/21 12:40:50;;;;;;;8.57;6.20;;;-0.70;99.90;;;;;;4952492;28;20593;-75
2022/11/21 12:43:26;;;;;;;9.03;7.23;;;-0.60;99.90;;;;;;4952778;28;20202;-77
2022/11/21 12:46:01;;;;;;;7.70;6.83;;;-0.80;99.90;;;;;;4952063;28;20235;-74
2022/11/21 12:54:59;;;;;;;10.40;7.40;;;-0.70;99.90;;;;;;4952181;28;20733;-73
2022/11/21 12:57:38;;;;;;;10.00;8.20;;;-0.70;99.90;;;;;;4952355;28;20291;-73
2022/11/21 13:00:12;;;;;;;9.20;7.60;;;-0.70;99.90;;;;;;4970390;28;20740;-77
2022/11/21 13:03:02;;;;;;;10.67;7.43;;;-0.60;99.90;;;;;;4990636;28;20201;-75
2022/11/21 13:05:32;;;;;;;9.13;7.70;;;-0.60;99.90;;;;;;4990635;28;20324;-74
2022/11/21 13:08:05;;;;;;;9.90;7.93;;;-0.50;99.90;;;;;;4983103;28;20233;-76
2022/11/21 13:10:32;;;;;;;10.53;7.60;;;-0.40;99.90;;;;;;4971484;28;20281;-74
2022/11/21 13:13:05;;;;;;;7.90;7.10;;;-0.40;99.90;;;;;;4971123;28;20716;-74
2022/11/21 13:15:40;;;;;;;7.73;6.93;;;-0.30;99.90;;;;;;4970610;28;20286;-74